sensor_id;sensor_type;location;lat;lon;timestamp;pressure;altitude;pressure_sealevel;temperature;humidity
4410;BME280;2218;51.408;7.208;2023-02-21T00:02:21;100167.78;;;19.18;43.46
4410;BME280;2218;51.408;7.208;2023-02-21T00:05:07;100160.00;;;19.16;43.52
4410;BME280;2218;51.408;7.208;2023-02-21T00:07:52;100155.69;;;19.15;43.46
4410;BME280;2218;51.408;7.208;2023-02-21T00:10:36;100152.28;;;19.13;43.60
4410;BME280;2218;51.408;7.208;2023-02-21T00:13:21;100152.28;;;19.13;43.38
4410;BME280;2218;51.408;7.208;2023-02-21T00:16:05;100161.13;;;19.12;43.47
4410;BME280;2218;51.408;7.208;2023-02-21T00:18:50;100162.06;;;19.11;43.46
4410;BME280;2218;51.408;7.208;2023-02-21T00:21:36;100157.75;;;19.10;43.67
4410;BME280;2218;51.408;7.208;2023-02-21T00:24:20;100167.44;;;19.09;43.65
4410;BME280;2218;51.408;7.208;2023-02-21T00:27:05;100165.72;;;19.08;43.51
4410;BME280;2218;51.408;7.208;2023-02-21T00:29:50;100159.59;;;19.08;43.52
4410;BME280;2218;51.408;7.208;2023-02-21T00:32:35;100162.34;;;19.06;43.72
4410;BME280;2218;51.408;7.208;2023-02-21T00:35:19;100161.50;;;19.06;43.71
4410;BME280;2218;51.408;7.208;2023-02-21T00:38:05;100165.81;;;19.07;43.64
4410;BME280;2218;51.408;7.208;2023-02-21T00:40:50;100159.81;;;19.05;43.52
4410;BME280;2218;51.408;7.208;2023-02-21T00:43:35;100165.81;;;19.07;43.24
4410;BME280;2218;51.408;7.208;2023-02-21T00:46:20;100159.03;;;19.03;43.76
4410;BME280;2218;51.408;7.208;2023-02-21T00:49:05;100152.81;;;19.04;43.62
4410;BME280;2218;51.408;7.208;2023-02-21T00:51:50;100152.94;;;19.02;43.75
4410;BME280;2218;51.408;7.208;2023-02-21T00:54:36;100158.31;;;19.01;43.85
4410;BME280;2218;51.408;7.208;2023-02-21T00:57:22;100161.88;;;19.00;43.74
4410;BME280;2218;51.408;7.208;2023-02-21T01:00:14;100155.66;;;19.01;43.63
4410;BME280;2218;51.408;7.208;2023-02-21T01:03:00;100148.72;;;19.00;43.78
4410;BME280;2218;51.408;7.208;2023-02-21T01:05:45;100143.53;;;18.98;43.84
4410;BME280;2218;51.408;7.208;2023-02-21T01:08:29;100140.81;;;19.00;43.66
4410;BME280;2218;51.408;7.208;2023-02-21T01:11:20;100140.03;;;18.98;43.96
4410;BME280;2218;51.408;7.208;2023-02-21T01:14:06;100141.00;;;18.97;43.68
4410;BME280;2218;51.408;7.208;2023-02-21T01:16:51;100136.56;;;18.97;43.93
4410;BME280;2218;51.408;7.208;2023-02-21T01:19:37;100140.16;;;18.96;43.77
4410;BME280;2218;51.408;7.208;2023-02-21T01:22:22;100141.16;;;18.94;43.74
4410;BME280;2218;51.408;7.208;2023-02-21T01:25:07;100137.63;;;18.95;43.71
4410;BME280;2218;51.408;7.208;2023-02-21T01:27:54;100131.47;;;18.94;43.96
4410;BME280;2218;51.408;7.208;2023-02-21T01:30:39;100130.63;;;18.94;43.84
4410;BME280;2218;51.408;7.208;2023-02-21T01:33:24;100122.84;;;18.92;44.34
4410;BME280;2218;51.408;7.208;2023-02-21T01:36:09;100127.25;;;18.92;44.10
4410;BME280;2218;51.408;7.208;2023-02-21T01:38:54;100131.56;;;18.93;43.91
4410;BME280;2218;51.408;7.208;2023-02-21T01:41:39;100127.25;;;18.92;43.96
4410;BME280;2218;51.408;7.208;2023-02-21T01:44:34;100125.56;;;18.91;44.10
4410;BME280;2218;51.408;7.208;2023-02-21T01:47:19;100125.56;;;18.91;43.70
4410;BME280;2218;51.408;7.208;2023-02-21T01:50:12;100128.19;;;18.91;43.99
4410;BME280;2218;51.408;7.208;2023-02-21T01:53:00;100130.00;;;18.90;43.95
4410;BME280;2218;51.408;7.208;2023-02-21T01:55:47;100127.44;;;18.89;44.04
4410;BME280;2218;51.408;7.208;2023-02-21T01:58:33;100122.16;;;18.89;43.92
4410;BME280;2218;51.408;7.208;2023-02-21T02:01:44;100121.31;;;18.88;44.01
4410;BME280;2218;51.408;7.208;2023-02-21T02:04:32;100117.00;;;18.87;43.87
4410;BME280;2218;51.408;7.208;2023-02-21T02:07:17;100116.16;;;18.87;44.19
4410;BME280;2218;51.408;7.208;2023-02-21T02:10:04;100117.09;;;18.85;44.16
4410;BME280;2218;51.408;7.208;2023-02-21T02:13:16;100118.03;;;18.84;43.87
4410;BME280;2218;51.408;7.208;2023-02-21T02:15:58;100121.59;;;18.83;44.09
4410;BME280;2218;51.408;7.208;2023-02-21T02:18:59;100125.91;;;18.84;44.00
4410;BME280;2218;51.408;7.208;2023-02-21T02:22:23;100122.44;;;18.84;43.98
4410;BME280;2218;51.408;7.208;2023-02-21T02:25:15;100122.53;;;18.82;43.95
4410;BME280;2218;51.408;7.208;2023-02-21T02:28:22;100125.19;;;18.82;44.02
4410;BME280;2218;51.408;7.208;2023-02-21T02:31:26;100126.97;;;18.82;44.19
4410;BME280;2218;51.408;7.208;2023-02-21T02:34:48;100122.72;;;18.79;44.17
4410;BME280;2218;51.408;7.208;2023-02-21T02:37:23;100123.59;;;18.80;44.04
4410;BME280;2218;51.408;7.208;2023-02-21T02:40:04;100116.59;;;18.79;44.34
4410;BME280;2218;51.408;7.208;2023-02-21T02:42:46;100110.50;;;18.78;44.36
4410;BME280;2218;51.408;7.208;2023-02-21T02:45:22;100114.06;;;18.77;44.48
4410;BME280;2218;51.408;7.208;2023-02-21T02:47:59;100114.06;;;18.77;44.28
4410;BME280;2218;51.408;7.208;2023-02-21T02:50:31;100118.41;;;18.78;44.26
4410;BME280;2218;51.408;7.208;2023-02-21T02:53:02;100100.91;;;18.77;44.31
4410;BME280;2218;51.408;7.208;2023-02-21T02:55:39;100098.09;;;18.80;44.21
4410;BME280;2218;51.408;7.208;2023-02-21T02:58:10;100102.44;;;18.81;44.10
4410;BME280;2218;51.408;7.208;2023-02-21T03:00:44;100100.63;;;18.82;44.28
4410;BME280;2218;51.408;7.208;2023-02-21T03:03:38;100101.47;;;18.82;44.31
4410;BME280;2218;51.408;7.208;2023-02-21T03:06:24;100101.47;;;18.82;44.23
4410;BME280;2218;51.408;7.208;2023-02-21T03:09:03;100098.75;;;18.84;44.04
4410;BME280;2218;51.408;7.208;2023-02-21T03:11:42;100102.16;;;18.86;44.08
4410;BME280;2218;51.408;7.208;2023-02-21T03:14:15;100102.16;;;18.86;44.05
4410;BME280;2218;51.408;7.208;2023-02-21T03:16:50;100106.47;;;18.87;44.10
4410;BME280;2218;51.408;7.208;2023-02-21T03:19:24;100111.63;;;18.89;43.88
4410;BME280;2218;51.408;7.208;2023-02-21T03:21:58;100104.56;;;18.89;44.01
4410;BME280;2218;51.408;7.208;2023-02-21T03:24:27;100108.91;;;18.90;43.92
4410;BME280;2218;51.408;7.208;2023-02-21T03:27:01;100115.03;;;18.91;43.96
4410;BME280;2218;51.408;7.208;2023-02-21T03:30:02;100104.50;;;18.91;44.08
4410;BME280;2218;51.408;7.208;2023-02-21T03:32:34;100105.34;;;18.91;44.22
4410;BME280;2218;51.408;7.208;2023-02-21T03:35:05;100106.19;;;18.92;44.10
4410;BME280;2218;51.408;7.208;2023-02-21T03:37:38;100108.81;;;18.92;44.01
4410;BME280;2218;51.408;7.208;2023-02-21T03:40:09;100106.19;;;18.92;44.25
4410;BME280;2218;51.408;7.208;2023-02-21T03:42:36;100099.97;;;18.93;44.06
4410;BME280;2218;51.408;7.208;2023-02-21T03:45:04;100094.69;;;18.93;43.98
4410;BME280;2218;51.408;7.208;2023-02-21T03:47:32;100092.91;;;18.93;44.08
4410;BME280;2218;51.408;7.208;2023-02-21T03:49:59;100096.38;;;18.94;43.97
4410;BME280;2218;51.408;7.208;2023-02-21T03:52:26;100096.50;;;18.92;44.00
4410;BME280;2218;51.408;7.208;2023-02-21T03:54:54;100097.34;;;18.93;44.17
4410;BME280;2218;51.408;7.208;2023-02-21T03:57:24;100094.69;;;18.93;44.12
4410;BME280;2218;51.408;7.208;2023-02-21T03:59:51;100098.19;;;18.93;44.16
4410;BME280;2218;51.408;7.208;2023-02-21T04:02:19;100093.75;;;18.94;43.82
4410;BME280;2218;51.408;7.208;2023-02-21T04:04:46;100096.38;;;18.94;44.32
4410;BME280;2218;51.408;7.208;2023-02-21T04:07:18;100088.50;;;18.94;44.00
4410;BME280;2218;51.408;7.208;2023-02-21T04:09:46;100093.75;;;18.94;44.28
4410;BME280;2218;51.408;7.208;2023-02-21T04:12:20;100099.03;;;18.94;44.25
4410;BME280;2218;51.408;7.208;2023-02-21T04:14:47;100106.00;;;18.95;44.17
4410;BME280;2218;51.408;7.208;2023-02-21T04:17:14;100103.38;;;18.95;44.25
4410;BME280;2218;51.408;7.208;2023-02-21T04:19:42;100106.00;;;18.95;43.98
4410;BME280;2218;51.408;7.208;2023-02-21T04:22:09;100110.34;;;18.96;44.08
4410;BME280;2218;51.408;7.208;2023-02-21T04:24:36;100102.44;;;18.96;44.07
4410;BME280;2218;51.408;7.208;2023-02-21T04:27:03;100107.69;;;18.96;43.91
4410;BME280;2218;51.408;7.208;2023-02-21T04:29:35;100105.06;;;18.96;44.23
4410;BME280;2218;51.408;7.208;2023-02-21T04:32:02;100105.91;;;18.96;44.16
4410;BME280;2218;51.408;7.208;2023-02-21T04:34:31;100106.75;;;18.97;44.01
4410;BME280;2218;51.408;7.208;2023-02-21T04:36:58;100102.31;;;18.97;44.21
4410;BME280;2218;51.408;7.208;2023-02-21T04:39:25;100092.75;;;18.96;44.04
4410;BME280;2218;51.408;7.208;2023-02-21T04:41:52;100094.41;;;18.97;44.08
4410;BME280;2218;51.408;7.208;2023-02-21T04:44:19;100090.94;;;18.97;44.29
4410;BME280;2218;51.408;7.208;2023-02-21T04:46:47;100094.41;;;18.97;44.17
4410;BME280;2218;51.408;7.208;2023-02-21T04:49:14;100087.38;;;18.98;44.02
4410;BME280;2218;51.408;7.208;2023-02-21T04:51:41;100087.38;;;18.98;43.97
4410;BME280;2218;51.408;7.208;2023-02-21T04:54:08;100080.41;;;18.97;44.25
4410;BME280;2218;51.408;7.208;2023-02-21T04:56:35;100076.81;;;18.98;44.15
4410;BME280;2218;51.408;7.208;2023-02-21T04:59:02;100072.50;;;18.97;43.96
4410;BME280;2218;51.408;7.208;2023-02-21T05:01:30;100087.38;;;18.98;44.22
4410;BME280;2218;51.408;7.208;2023-02-21T05:03:59;100085.56;;;18.98;43.98
4410;BME280;2218;51.408;7.208;2023-02-21T05:06:29;100078.50;;;18.99;44.17
4410;BME280;2218;51.408;7.208;2023-02-21T05:08:56;100091.69;;;18.99;44.30
4410;BME280;2218;51.408;7.208;2023-02-21T05:11:24;100082.00;;;18.99;44.08
4410;BME280;2218;51.408;7.208;2023-02-21T05:13:52;100082.88;;;19.00;44.14
4410;BME280;2218;51.408;7.208;2023-02-21T05:16:19;100088.13;;;19.00;44.12
4410;BME280;2218;51.408;7.208;2023-02-21T05:18:47;100083.72;;;19.00;44.28
4410;BME280;2218;51.408;7.208;2023-02-21T05:21:18;100091.50;;;19.02;43.91
4410;BME280;2218;51.408;7.208;2023-02-21T05:23:46;100091.31;;;19.05;44.02
4410;BME280;2218;51.408;7.208;2023-02-21T05:26:23;100093.75;;;19.08;43.93
4410;BME280;2218;51.408;7.208;2023-02-21T05:28:51;100097.03;;;19.11;44.05
4410;BME280;2218;51.408;7.208;2023-02-21T05:31:18;100099.50;;;19.15;44.01
4410;BME280;2218;51.408;7.208;2023-02-21T05:33:46;100102.03;;;19.16;43.95
4410;BME280;2218;51.408;7.208;2023-02-21T05:36:13;100107.09;;;19.19;43.96
4410;BME280;2218;51.408;7.208;2023-02-21T05:38:46;100109.66;;;19.21;43.67
4410;BME280;2218;51.408;7.208;2023-02-21T05:41:14;100099.00;;;19.22;43.96
4410;BME280;2218;51.408;7.208;2023-02-21T05:43:43;100103.25;;;19.25;43.71
4410;BME280;2218;51.408;7.208;2023-02-21T05:46:19;100099.56;;;19.27;43.75
4410;BME280;2218;51.408;7.208;2023-02-21T05:48:47;100111.91;;;19.27;43.75
4410;BME280;2218;51.408;7.208;2023-02-21T05:51:14;100109.16;;;19.28;43.89
4410;BME280;2218;51.408;7.208;2023-02-21T05:53:41;100101.25;;;19.28;43.35
4410;BME280;2218;51.408;7.208;2023-02-21T05:56:10;100101.16;;;19.30;43.64
4410;BME280;2218;51.408;7.208;2023-02-21T05:58:37;100092.41;;;19.29;43.84
4410;BME280;2218;51.408;7.208;2023-02-21T06:01:05;100087.03;;;19.31;43.80
4410;BME280;2218;51.408;7.208;2023-02-21T06:03:32;100100.13;;;19.32;43.79
4410;BME280;2218;51.408;7.208;2023-02-21T06:06:00;100095.78;;;19.31;43.66
4410;BME280;2218;51.408;7.208;2023-02-21T06:08:27;100096.53;;;19.33;43.74
4410;BME280;2218;51.408;7.208;2023-02-21T06:10:54;100100.00;;;19.34;43.61
4410;BME280;2218;51.408;7.208;2023-02-21T06:13:22;100104.25;;;19.36;43.67
4410;BME280;2218;51.408;7.208;2023-02-21T06:15:49;100096.34;;;19.36;43.56
4410;BME280;2218;51.408;7.208;2023-02-21T06:18:16;100099.72;;;19.38;43.55
4410;BME280;2218;51.408;7.208;2023-02-21T06:20:43;100094.44;;;19.38;43.73
4410;BME280;2218;51.408;7.208;2023-02-21T06:23:10;100090.03;;;19.39;43.53
4410;BME280;2218;51.408;7.208;2023-02-21T06:25:37;100085.63;;;19.40;43.71
4410;BME280;2218;51.408;7.208;2023-02-21T06:28:04;100088.16;;;19.41;43.65
4410;BME280;2218;51.408;7.208;2023-02-21T06:30:32;100078.56;;;19.40;43.50
4410;BME280;2218;51.408;7.208;2023-02-21T06:32:59;100088.03;;;19.43;43.59
4410;BME280;2218;51.408;7.208;2023-02-21T06:35:26;100080.13;;;19.43;43.42
4410;BME280;2218;51.408;7.208;2023-02-21T06:37:53;100082.66;;;19.44;43.50
4410;BME280;2218;51.408;7.208;2023-02-21T06:40:20;100089.72;;;19.44;43.39
4410;BME280;2218;51.408;7.208;2023-02-21T06:42:47;100087.84;;;19.46;43.52
4410;BME280;2218;51.408;7.208;2023-02-21T06:45:14;100090.38;;;19.47;43.54
4410;BME280;2218;51.408;7.208;2023-02-21T06:47:42;100092.19;;;19.47;43.55
4410;BME280;2218;51.408;7.208;2023-02-21T06:50:09;100093.88;;;19.48;43.53
4410;BME280;2218;51.408;7.208;2023-02-21T06:52:36;100095.56;;;19.49;43.61
4410;BME280;2218;51.408;7.208;2023-02-21T06:55:03;100091.16;;;19.49;43.58
4410;BME280;2218;51.408;7.208;2023-02-21T06:57:30;100089.34;;;19.50;43.31
4410;BME280;2218;51.408;7.208;2023-02-21T06:59:57;100088.41;;;19.51;43.52
4410;BME280;2218;51.408;7.208;2023-02-21T07:02:24;100092.72;;;19.52;43.43
4410;BME280;2218;51.408;7.208;2023-02-21T07:04:52;100095.38;;;19.52;43.49
4410;BME280;2218;51.408;7.208;2023-02-21T07:07:20;100094.41;;;19.53;43.39
4410;BME280;2218;51.408;7.208;2023-02-21T07:09:47;100096.22;;;19.52;43.57
4410;BME280;2218;51.408;7.208;2023-02-21T07:12:14;100092.63;;;19.53;43.43
4410;BME280;2218;51.408;7.208;2023-02-21T07:14:41;100098.72;;;19.54;43.39
4410;BME280;2218;51.408;7.208;2023-02-21T07:17:07;100093.47;;;19.54;43.33
4410;BME280;2218;51.408;7.208;2023-02-21T07:19:34;100096.03;;;19.55;43.56
4410;BME280;2218;51.408;7.208;2023-02-21T07:22:03;100086.31;;;19.56;43.59
4410;BME280;2218;51.408;7.208;2023-02-21T07:24:29;100091.59;;;19.56;43.61
4410;BME280;2218;51.408;7.208;2023-02-21T07:26:56;100087.16;;;19.56;43.51
4410;BME280;2218;51.408;7.208;2023-02-21T07:29:24;100095.53;;;19.63;43.68
4410;BME280;2218;51.408;7.208;2023-02-21T07:31:51;100097.41;;;19.75;43.51
4410;BME280;2218;51.408;7.208;2023-02-21T07:34:17;100093.28;;;19.84;43.25
4410;BME280;2218;51.408;7.208;2023-02-21T07:36:44;100096.41;;;19.91;42.93
4410;BME280;2218;51.408;7.208;2023-02-21T07:39:13;100090.91;;;19.94;42.97
4410;BME280;2218;51.408;7.208;2023-02-21T07:41:40;100088.81;;;19.99;43.13
4410;BME280;2218;51.408;7.208;2023-02-21T07:44:08;100095.78;;;20.00;42.93
4410;BME280;2218;51.408;7.208;2023-02-21T07:46:35;100094.94;;;19.99;42.67
4410;BME280;2218;51.408;7.208;2023-02-21T07:49:02;100097.25;;;20.04;42.69
4410;BME280;2218;51.408;7.208;2023-02-21T07:51:30;100086.63;;;20.05;42.69
4410;BME280;2218;51.408;7.208;2023-02-21T07:53:57;100086.09;;;20.13;42.81
4410;BME280;2218;51.408;7.208;2023-02-21T07:56:25;100091.19;;;20.16;42.63
4410;BME280;2218;51.408;7.208;2023-02-21T07:58:52;100090.03;;;20.20;42.69
4410;BME280;2218;51.408;7.208;2023-02-21T08:01:25;100092.03;;;20.17;42.66
4410;BME280;2218;51.408;7.208;2023-02-21T08:03:52;100100.06;;;20.15;42.56
4410;BME280;2218;51.408;7.208;2023-02-21T08:06:19;100098.16;;;20.17;42.44
4410;BME280;2218;51.408;7.208;2023-02-21T08:08:46;100112.94;;;20.20;42.56
4410;BME280;2218;51.408;7.208;2023-02-21T08:11:13;100114.50;;;20.22;42.46
4410;BME280;2218;51.408;7.208;2023-02-21T08:13:41;100110.84;;;20.25;42.45
4410;BME280;2218;51.408;7.208;2023-02-21T08:16:08;100115.28;;;20.24;42.36
4410;BME280;2218;51.408;7.208;2023-02-21T08:18:35;100120.31;;;20.27;42.35
4410;BME280;2218;51.408;7.208;2023-02-21T08:21:02;100115.06;;;20.27;42.36
4410;BME280;2218;51.408;7.208;2023-02-21T08:23:30;100118.44;;;20.29;42.36
4410;BME280;2218;51.408;7.208;2023-02-21T08:25:56;100112.22;;;20.30;42.42
4410;BME280;2218;51.408;7.208;2023-02-21T08:28:23;100116.53;;;20.31;42.45
4410;BME280;2218;51.408;7.208;2023-02-21T08:30:51;100110.31;;;20.32;42.47
4410;BME280;2218;51.408;7.208;2023-02-21T08:33:19;100107.59;;;20.34;42.37
4410;BME280;2218;51.408;7.208;2023-02-21T08:35:45;100111.06;;;20.34;42.54
4410;BME280;2218;51.408;7.208;2023-02-21T08:38:12;100108.44;;;20.34;42.59
4410;BME280;2218;51.408;7.208;2023-02-21T08:40:40;100106.50;;;20.36;42.56
4410;BME280;2218;51.408;7.208;2023-02-21T08:43:07;100116.13;;;20.37;42.45
4410;BME280;2218;51.408;7.208;2023-02-21T08:45:34;100115.16;;;20.38;42.49
4410;BME280;2218;51.408;7.208;2023-02-21T08:48:02;100108.97;;;20.39;42.43
4410;BME280;2218;51.408;7.208;2023-02-21T08:50:29;100105.38;;;20.40;42.41
4410;BME280;2218;51.408;7.208;2023-02-21T08:52:58;100114.00;;;20.43;42.61
4410;BME280;2218;51.408;7.208;2023-02-21T08:55:25;100097.34;;;20.42;42.46
4410;BME280;2218;51.408;7.208;2023-02-21T08:57:53;100105.13;;;20.44;42.46
4410;BME280;2218;51.408;7.208;2023-02-21T09:00:22;100099.84;;;20.44;42.56
4410;BME280;2218;51.408;7.208;2023-02-21T09:02:54;100109.38;;;20.46;42.52
4410;BME280;2218;51.408;7.208;2023-02-21T09:05:25;100112.91;;;20.47;42.54
4410;BME280;2218;51.408;7.208;2023-02-21T09:07:55;100102.22;;;20.48;42.54
4410;BME280;2218;51.408;7.208;2023-02-21T09:10:24;100104.00;;;20.48;42.44
4410;BME280;2218;51.408;7.208;2023-02-21T09:12:51;100105.72;;;20.49;42.55
4410;BME280;2218;51.408;7.208;2023-02-21T09:15:19;100107.41;;;20.50;42.59
4410;BME280;2218;51.408;7.208;2023-02-21T09:17:46;100104.66;;;20.51;42.50
4410;BME280;2218;51.408;7.208;2023-02-21T09:20:19;100104.66;;;20.51;42.27
4410;BME280;2218;51.408;7.208;2023-02-21T09:22:47;100102.88;;;20.52;41.92
4410;BME280;2218;51.408;7.208;2023-02-21T09:25:19;100105.38;;;20.53;42.36
4410;BME280;2218;51.408;7.208;2023-02-21T09:27:48;100102.66;;;20.55;42.39
4410;BME280;2218;51.408;7.208;2023-02-21T09:30:18;100113.00;;;20.58;42.13
4410;BME280;2218;51.408;7.208;2023-02-21T09:32:47;100110.34;;;20.58;42.08
4410;BME280;2218;51.408;7.208;2023-02-21T09:35:15;100102.25;;;20.61;42.10
4410;BME280;2218;51.408;7.208;2023-02-21T09:37:44;100103.72;;;20.65;42.32
4410;BME280;2218;51.408;7.208;2023-02-21T09:40:23;100091.25;;;20.67;42.08
4410;BME280;2218;51.408;7.208;2023-02-21T09:42:55;100095.50;;;20.70;41.89
4410;BME280;2218;51.408;7.208;2023-02-21T09:45:25;100090.09;;;20.71;41.89
4410;BME280;2218;51.408;7.208;2023-02-21T09:48:00;100083.84;;;20.72;41.87
4410;BME280;2218;51.408;7.208;2023-02-21T09:50:34;100097.81;;;20.74;41.94
4410;BME280;2218;51.408;7.208;2023-02-21T09:53:07;100108.38;;;20.74;42.19
4410;BME280;2218;51.408;7.208;2023-02-21T09:55:38;100104.97;;;20.72;42.18
4410;BME280;2218;51.408;7.208;2023-02-21T09:58:11;100109.31;;;20.73;42.21
4410;BME280;2218;51.408;7.208;2023-02-21T10:00:39;100107.63;;;20.72;42.42
4410;BME280;2218;51.408;7.208;2023-02-21T10:03:46;100104.97;;;20.72;42.26
4410;BME280;2218;51.408;7.208;2023-02-21T10:06:30;100107.53;;;20.74;42.55
4410;BME280;2218;51.408;7.208;2023-02-21T10:09:12;100103.94;;;20.75;42.49
4410;BME280;2218;51.408;7.208;2023-02-21T10:11:58;100108.16;;;20.77;42.42
4410;BME280;2218;51.408;7.208;2023-02-21T10:14:42;100099.38;;;20.77;42.48
4410;BME280;2218;51.408;7.208;2023-02-21T10:17:20;100102.88;;;20.77;42.49
4410;BME280;2218;51.408;7.208;2023-02-21T10:19:54;100109.84;;;20.78;42.41
4410;BME280;2218;51.408;7.208;2023-02-21T10:22:27;100108.06;;;20.79;42.67
4410;BME280;2218;51.408;7.208;2023-02-21T10:24:57;100108.91;;;20.79;42.63
4410;BME280;2218;51.408;7.208;2023-02-21T10:27:29;100105.31;;;20.80;42.37
4410;BME280;2218;51.408;7.208;2023-02-21T10:30:02;100107.94;;;20.80;42.26
4410;BME280;2218;51.408;7.208;2023-02-21T10:32:32;100114.06;;;20.81;42.44
4410;BME280;2218;51.408;7.208;2023-02-21T10:34:59;100110.47;;;20.82;42.35
4410;BME280;2218;51.408;7.208;2023-02-21T10:37:35;100109.75;;;20.80;42.14
4410;BME280;2218;51.408;7.208;2023-02-21T10:40:24;100109.63;;;20.81;42.34
4410;BME280;2218;51.408;7.208;2023-02-21T10:43:00;100105.00;;;20.85;42.28
4410;BME280;2218;51.408;7.208;2023-02-21T10:45:35;100110.16;;;20.86;42.25
4410;BME280;2218;51.408;7.208;2023-02-21T10:48:06;100103.91;;;20.87;42.26
4410;BME280;2218;51.408;7.208;2023-02-21T10:50:43;100117.88;;;20.89;42.22
4410;BME280;2218;51.408;7.208;2023-02-21T10:53:27;100114.28;;;20.90;42.07
4410;BME280;2218;51.408;7.208;2023-02-21T10:56:25;100112.38;;;20.92;42.12
4410;BME280;2218;51.408;7.208;2023-02-21T10:58:57;100110.69;;;20.91;42.24
4410;BME280;2218;51.408;7.208;2023-02-21T11:01:41;100108.78;;;20.94;42.36
4410;BME280;2218;51.408;7.208;2023-02-21T11:04:25;100109.63;;;20.94;41.89
4410;BME280;2218;51.408;7.208;2023-02-21T11:06:56;100108.66;;;20.95;42.05
4410;BME280;2218;51.408;7.208;2023-02-21T11:09:36;100106.03;;;20.95;42.27
4410;BME280;2218;51.408;7.208;2023-02-21T11:12:16;100102.56;;;20.95;42.15
4410;BME280;2218;51.408;7.208;2023-02-21T11:15:05;100110.47;;;20.95;42.05
4410;BME280;2218;51.408;7.208;2023-02-21T11:17:42;100106.03;;;20.95;42.16
4410;BME280;2218;51.408;7.208;2023-02-21T11:20:17;100093.03;;;20.92;41.68
4410;BME280;2218;51.408;7.208;2023-02-21T11:22:47;100092.94;;;20.94;41.80
4410;BME280;2218;51.408;7.208;2023-02-21T11:25:21;100100.94;;;20.92;41.74
4410;BME280;2218;51.408;7.208;2023-02-21T11:28:05;100096.50;;;20.92;41.97
4410;BME280;2218;51.408;7.208;2023-02-21T11:30:37;100096.50;;;20.92;41.59
4410;BME280;2218;51.408;7.208;2023-02-21T11:33:06;100091.13;;;20.94;41.81
4410;BME280;2218;51.408;7.208;2023-02-21T11:35:40;100092.59;;;20.98;41.80
4410;BME280;2218;51.408;7.208;2023-02-21T11:38:32;100082.66;;;21.02;41.94
4410;BME280;2218;51.408;7.208;2023-02-21T11:41:01;100083.41;;;21.04;41.73
4410;BME280;2218;51.408;7.208;2023-02-21T11:43:29;100081.50;;;21.06;41.77
4410;BME280;2218;51.408;7.208;2023-02-21T11:46:09;100080.41;;;21.08;41.72
4410;BME280;2218;51.408;7.208;2023-02-21T11:48:50;100074.28;;;21.08;42.04
4410;BME280;2218;51.408;7.208;2023-02-21T11:51:44;100080.41;;;21.08;41.64
4410;BME280;2218;51.408;7.208;2023-02-21T11:54:13;100079.47;;;21.09;41.85
4410;BME280;2218;51.408;7.208;2023-02-21T11:56:50;100072.41;;;21.10;42.02
4410;BME280;2218;51.408;7.208;2023-02-21T11:59:42;100077.69;;;21.10;41.89
4410;BME280;2218;51.408;7.208;2023-02-21T12:02:44;100073.25;;;21.10;42.03
4410;BME280;2218;51.408;7.208;2023-02-21T12:05:30;100067.94;;;21.10;42.19
4410;BME280;2218;51.408;7.208;2023-02-21T12:11:18;100064.47;;;21.10;42.12
4410;BME280;2218;51.408;7.208;2023-02-21T12:14:05;100066.16;;;21.11;41.86
4410;BME280;2218;51.408;7.208;2023-02-21T12:16:45;100061.72;;;21.11;41.93
4410;BME280;2218;51.408;7.208;2023-02-21T12:19:42;100060.75;;;21.12;42.04
4410;BME280;2218;51.408;7.208;2023-02-21T12:22:30;100055.47;;;21.12;42.21
4410;BME280;2218;51.408;7.208;2023-02-21T12:25:17;100056.31;;;21.13;42.46
4410;BME280;2218;51.408;7.208;2023-02-21T12:27:54;100047.44;;;21.14;42.08
4410;BME280;2218;51.408;7.208;2023-02-21T12:31:04;100045.72;;;21.13;42.32
4410;BME280;2218;51.408;7.208;2023-02-21T12:33:43;100044.81;;;21.14;42.34
4410;BME280;2218;51.408;7.208;2023-02-21T12:36:32;100042.16;;;21.14;42.08
4410;BME280;2218;51.408;7.208;2023-02-21T12:39:22;100037.72;;;21.14;42.13
4410;BME280;2218;51.408;7.208;2023-02-21T12:42:43;100028.09;;;21.13;42.45
4410;BME280;2218;51.408;7.208;2023-02-21T12:45:36;100031.59;;;21.14;42.51
4410;BME280;2218;51.408;7.208;2023-02-21T12:48:15;100026.31;;;21.14;42.24
4410;BME280;2218;51.408;7.208;2023-02-21T12:50:50;100024.50;;;21.14;42.17
4410;BME280;2218;51.408;7.208;2023-02-21T12:53:25;100021.84;;;21.14;42.15
4410;BME280;2218;51.408;7.208;2023-02-21T12:56:02;100017.41;;;21.15;42.17
4410;BME280;2218;51.408;7.208;2023-02-21T12:58:38;100012.13;;;21.15;42.49
4410;BME280;2218;51.408;7.208;2023-02-21T13:01:13;100017.41;;;21.15;42.00
4410;BME280;2218;51.408;7.208;2023-02-21T13:03:54;100007.78;;;21.14;42.36
4410;BME280;2218;51.408;7.208;2023-02-21T13:06:27;99999.88;;;21.14;42.51
4410;BME280;2218;51.408;7.208;2023-02-21T13:09:10;99999.88;;;21.14;42.22
4410;BME280;2218;51.408;7.208;2023-02-21T13:11:50;99995.44;;;21.14;42.22
4410;BME280;2218;51.408;7.208;2023-02-21T13:14:27;99999.88;;;21.14;42.11
4410;BME280;2218;51.408;7.208;2023-02-21T13:16:54;99989.28;;;21.14;42.19
4410;BME280;2218;51.408;7.208;2023-02-21T13:19:23;99989.28;;;21.14;42.16
4410;BME280;2218;51.408;7.208;2023-02-21T13:24:47;99991.94;;;21.14;42.28
4410;BME280;2218;51.408;7.208;2023-02-21T13:25:48;99980.53;;;21.13;42.45
4410;BME280;2218;51.408;7.208;2023-02-21T13:28:22;99981.38;;;21.14;42.15
4410;BME280;2218;51.408;7.208;2023-02-21T13:30:52;99975.13;;;21.15;42.39
4410;BME280;2218;51.408;7.208;2023-02-21T13:33:26;99974.16;;;21.16;42.38
4410;BME280;2218;51.408;7.208;2023-02-21T13:35:57;99968.16;;;21.14;42.15
4410;BME280;2218;51.408;7.208;2023-02-21T13:38:28;99973.44;;;21.14;42.45
4410;BME280;2218;51.408;7.208;2023-02-21T13:41:09;99964.69;;;21.13;42.27
4410;BME280;2218;51.408;7.208;2023-02-21T13:43:48;99972.59;;;21.13;42.40
4410;BME280;2218;51.408;7.208;2023-02-21T13:47:07;99971.63;;;21.14;42.18
4410;BME280;2218;51.408;7.208;2023-02-21T13:49:53;99960.22;;;21.14;42.41
4410;BME280;2218;51.408;7.208;2023-02-21T13:53:01;99962.03;;;21.13;42.33
4410;BME280;2218;51.408;7.208;2023-02-21T13:55:30;99966.44;;;21.13;42.35
4410;BME280;2218;51.408;7.208;2023-02-21T13:58:32;99956.75;;;21.13;42.67
4410;BME280;2218;51.408;7.208;2023-02-21T14:01:22;99956.75;;;21.13;42.43
4410;BME280;2218;51.408;7.208;2023-02-21T14:07:53;99950.59;;;21.13;42.49